sensor_id;sensor_type;location;lat;lon;timestamp;pressure;altitude;pressure_sealevel;temperature;humidity
20119;BME280;10220;42.716;23.306;2023-04-03T00:00:07;94665.78;;;12.06;100.00
20119;BME280;10220;42.716;23.306;2023-04-03T00:02:33;94670.50;;;11.86;100.00
20119;BME280;10220;42.716;23.306;2023-04-03T00:04:58;94663.25;;;11.76;100.00
20119;BME280;10220;42.716;23.306;2023-04-03T00:07:23;94680.88;;;10.14;100.00
20119;BME280;10220;42.716;23.306;2023-04-03T00:09:49;94670.97;;;10.71;100.00
20119;BME280;10220;42.716;23.306;2023-04-03T00:12:15;94664.94;;;11.24;100.00
20119;BME280;10220;42.716;23.306;2023-04-03T00:14:40;94650.88;;;11.31;100.00
20119;BME280;10220;42.716;23.306;2023-04-03T00:17:06;94653.47;;;11.49;100.00
20119;BME280;10220;42.716;23.306;2023-04-03T00:19:31;94665.94;;;11.81;100.00
20119;BME280;10220;42.716;23.306;2023-04-03T00:21:56;94641.38;;;12.29;100.00
20119;BME280;10220;42.716;23.306;2023-04-03T00:24:22;94654.56;;;11.24;100.00
20119;BME280;10220;42.716;23.306;2023-04-03T00:26:47;94648.88;;;12.26;100.00
20119;BME280;10220;42.716;23.306;2023-04-03T00:29:13;94658.56;;;12.08;100.00
20119;BME280;10220;42.716;23.306;2023-04-03T00:31:38;94650.78;;;12.65;100.00
20119;BME280;10220;42.716;23.306;2023-04-03T00:34:04;94653.50;;;12.47;100.00
20119;BME280;10220;42.716;23.306;2023-04-03T00:36:29;94655.28;;;12.92;100.00
20119;BME280;10220;42.716;23.306;2023-04-03T00:38:55;94636.06;;;12.70;100.00
20119;BME280;10220;42.716;23.306;2023-04-03T00:41:20;94642.31;;;12.24;100.00
20119;BME280;10220;42.716;23.306;2023-04-03T00:43:46;94655.81;;;12.94;100.00
20119;BME280;10220;42.716;23.306;2023-04-03T00:46:12;94675.13;;;11.55;100.00
20119;BME280;10220;42.716;23.306;2023-04-03T00:48:42;94656.97;;;11.55;100.00
20119;BME280;10220;42.716;23.306;2023-04-03T00:51:13;94681.22;;;11.89;100.00
20119;BME280;10220;42.716;23.306;2023-04-03T00:53:44;94663.06;;;12.12;100.00
20119;BME280;10220;42.716;23.306;2023-04-03T00:56:13;94660.59;;;12.40;100.00
20119;BME280;10220;42.716;23.306;2023-04-03T00:58:45;94660.16;;;11.68;100.00
20119;BME280;10220;42.716;23.306;2023-04-03T01:01:15;94652.63;;;11.67;100.00
20119;BME280;10220;42.716;23.306;2023-04-03T01:03:42;94664.94;;;11.82;100.00
20119;BME280;10220;42.716;23.306;2023-04-03T01:06:08;94670.81;;;11.78;100.00
20119;BME280;10220;42.716;23.306;2023-04-03T01:08:34;94667.38;;;11.37;100.00
20119;BME280;10220;42.716;23.306;2023-04-03T01:11:00;94666.56;;;11.54;100.00
20119;BME280;10220;42.716;23.306;2023-04-03T01:13:31;94675.00;;;10.85;100.00
20119;BME280;10220;42.716;23.306;2023-04-03T01:15:57;94654.19;;;10.55;100.00
20119;BME280;10220;42.716;23.306;2023-04-03T01:18:25;94665.56;;;9.57;100.00
20119;BME280;10220;42.716;23.306;2023-04-03T01:23:57;94681.28;;;9.25;100.00
20119;BME280;10220;42.716;23.306;2023-04-03T01:26:25;94675.13;;;9.81;100.00
20119;BME280;10220;42.716;23.306;2023-04-03T01:28:53;94672.47;;;10.78;100.00
20119;BME280;10220;42.716;23.306;2023-04-03T01:31:31;94673.41;;;11.78;100.00
20119;BME280;10220;42.716;23.306;2023-04-03T01:33:59;94675.53;;;10.33;100.00
20119;BME280;10220;42.716;23.306;2023-04-03T01:36:30;94683.34;;;10.69;100.00
20119;BME280;10220;42.716;23.306;2023-04-03T01:38:58;94680.41;;;9.99;100.00
20119;BME280;10220;42.716;23.306;2023-04-03T01:41:25;94684.00;;;9.92;100.00
20119;BME280;10220;42.716;23.306;2023-04-03T01:43:51;94661.75;;;10.75;100.00
20119;BME280;10220;42.716;23.306;2023-04-03T01:46:18;94670.84;;;10.24;100.00
20119;BME280;10220;42.716;23.306;2023-04-03T01:48:43;94664.94;;;10.17;100.00
20119;BME280;10220;42.716;23.306;2023-04-03T01:51:09;94666.19;;;11.04;100.00
20119;BME280;10220;42.716;23.306;2023-04-03T01:53:35;94662.59;;;11.05;100.00
20119;BME280;10220;42.716;23.306;2023-04-03T01:56:00;94671.22;;;11.64;100.00
20119;BME280;10220;42.716;23.306;2023-04-03T01:58:28;94652.47;;;12.36;100.00
20119;BME280;10220;42.716;23.306;2023-04-03T02:00:54;94678.50;;;11.96;100.00
20119;BME280;10220;42.716;23.306;2023-04-03T02:03:20;94668.34;;;11.94;100.00
20119;BME280;10220;42.716;23.306;2023-04-03T02:05:45;94686.03;;;11.45;100.00
20119;BME280;10220;42.716;23.306;2023-04-03T02:08:11;94663.50;;;11.98;100.00
20119;BME280;10220;42.716;23.306;2023-04-03T02:10:37;94674.44;;;11.88;100.00
20119;BME280;10220;42.716;23.306;2023-04-03T02:13:02;94668.31;;;11.72;100.00
20119;BME280;10220;42.716;23.306;2023-04-03T02:15:28;94640.28;;;10.32;100.00
20119;BME280;10220;42.716;23.306;2023-04-03T02:17:53;94673.09;;;9.28;100.00
20119;BME280;10220;42.716;23.306;2023-04-03T02:20:19;94667.47;;;9.68;100.00
20119;BME280;10220;42.716;23.306;2023-04-03T02:22:45;94663.13;;;10.77;100.00
20119;BME280;10220;42.716;23.306;2023-04-03T02:25:10;94666.44;;;11.49;100.00
20119;BME280;10220;42.716;23.306;2023-04-03T02:27:36;94658.25;;;12.27;100.00
20119;BME280;10220;42.716;23.306;2023-04-03T02:30:03;94652.63;;;11.49;100.00
20119;BME280;10220;42.716;23.306;2023-04-03T02:32:29;94660.56;;;10.17;100.00
20119;BME280;10220;42.716;23.306;2023-04-03T02:34:54;94661.66;;;9.48;100.00
20119;BME280;10220;42.716;23.306;2023-04-03T02:37:20;94659.06;;;10.03;100.00
20119;BME280;10220;42.716;23.306;2023-04-03T02:39:46;94643.59;;;11.11;100.00
20119;BME280;10220;42.716;23.306;2023-04-03T02:42:11;94648.44;;;11.36;100.00
20119;BME280;10220;42.716;23.306;2023-04-03T02:44:37;94650.09;;;10.66;100.00
20119;BME280;10220;42.716;23.306;2023-04-03T02:47:04;94654.28;;;9.76;100.00
20119;BME280;10220;42.716;23.306;2023-04-03T02:49:29;94645.16;;;10.47;100.00
20119;BME280;10220;42.716;23.306;2023-04-03T02:51:55;94625.97;;;9.33;100.00
20119;BME280;10220;42.716;23.306;2023-04-03T02:54:20;94633.94;;;10.28;100.00
20119;BME280;10220;42.716;23.306;2023-04-03T02:56:47;94645.66;;;10.13;100.00
20119;BME280;10220;42.716;23.306;2023-04-03T02:59:12;94619.78;;;9.89;100.00
20119;BME280;10220;42.716;23.306;2023-04-03T03:01:37;94638.53;;;10.08;100.00
20119;BME280;10220;42.716;23.306;2023-04-03T03:04:03;94630.19;;;10.06;100.00
20119;BME280;10220;42.716;23.306;2023-04-03T03:06:28;94632.69;;;10.91;100.00
20119;BME280;10220;42.716;23.306;2023-04-03T03:08:54;94636.88;;;11.21;100.00
20119;BME280;10220;42.716;23.306;2023-04-03T03:11:20;94636.78;;;11.27;100.00
20119;BME280;10220;42.716;23.306;2023-04-03T03:13:48;94651.13;;;10.23;100.00
20119;BME280;10220;42.716;23.306;2023-04-03T03:16:14;94636.00;;;10.80;100.00
20119;BME280;10220;42.716;23.306;2023-04-03T03:18:39;94640.09;;;11.16;100.00
20119;BME280;10220;42.716;23.306;2023-04-03T03:21:05;94630.66;;;10.93;100.00
20119;BME280;10220;42.716;23.306;2023-04-03T03:23:31;94635.53;;;10.29;100.00
20119;BME280;10220;42.716;23.306;2023-04-03T03:26:15;94632.72;;;10.13;100.00
20119;BME280;10220;42.716;23.306;2023-04-03T03:28:41;94610.50;;;9.26;100.00
20119;BME280;10220;42.716;23.306;2023-04-03T03:31:07;94639.78;;;9.14;100.00
20119;BME280;10220;42.716;23.306;2023-04-03T03:33:33;94642.13;;;9.22;100.00
20119;BME280;10220;42.716;23.306;2023-04-03T03:35:59;94639.13;;;8.87;100.00
20119;BME280;10220;42.716;23.306;2023-04-03T03:38:25;94646.22;;;8.48;100.00
20119;BME280;10220;42.716;23.306;2023-04-03T03:40:51;94628.66;;;8.13;100.00
20119;BME280;10220;42.716;23.306;2023-04-03T03:43:17;94634.63;;;9.75;100.00
20119;BME280;10220;42.716;23.306;2023-04-03T03:45:43;94643.34;;;10.47;100.00
20119;BME280;10220;42.716;23.306;2023-04-03T03:48:09;94642.72;;;9.79;100.00
20119;BME280;10220;42.716;23.306;2023-04-03T03:50:35;94641.72;;;9.25;100.00
20119;BME280;10220;42.716;23.306;2023-04-03T03:53:00;94611.84;;;8.98;100.00
20119;BME280;10220;42.716;23.306;2023-04-03T03:55:26;94640.28;;;8.91;100.00
20119;BME280;10220;42.716;23.306;2023-04-03T03:57:51;94655.88;;;8.72;100.00
20119;BME280;10220;42.716;23.306;2023-04-03T04:00:17;94625.31;;;9.06;100.00
20119;BME280;10220;42.716;23.306;2023-04-03T04:02:43;94644.81;;;9.39;100.00
20119;BME280;10220;42.716;23.306;2023-04-03T04:05:08;94645.75;;;9.45;100.00
20119;BME280;10220;42.716;23.306;2023-04-03T04:07:34;94635.22;;;9.71;100.00
20119;BME280;10220;42.716;23.306;2023-04-03T04:10:00;94612.97;;;8.71;100.00
20119;BME280;10220;42.716;23.306;2023-04-03T04:12:25;94629.59;;;9.56;100.00
20119;BME280;10220;42.716;23.306;2023-04-03T04:14:51;94625.63;;;8.29;100.00
20119;BME280;10220;42.716;23.306;2023-04-03T04:17:16;94647.53;;;9.14;100.00
20119;BME280;10220;42.716;23.306;2023-04-03T04:19:41;94634.47;;;8.65;100.00
20119;BME280;10220;42.716;23.306;2023-04-03T04:22:07;94629.84;;;9.72;100.00
20119;BME280;10220;42.716;23.306;2023-04-03T04:24:32;94655.06;;;9.15;100.00
20119;BME280;10220;42.716;23.306;2023-04-03T04:26:58;94667.72;;;9.91;100.00
20119;BME280;10220;42.716;23.306;2023-04-03T04:29:23;94678.59;;;9.75;100.00
20119;BME280;10220;42.716;23.306;2023-04-03T04:31:49;94645.88;;;9.56;100.00
20119;BME280;10220;42.716;23.306;2023-04-03T04:34:14;94653.44;;;9.27;100.00
20119;BME280;10220;42.716;23.306;2023-04-03T04:36:40;94658.59;;;9.27;100.00
20119;BME280;10220;42.716;23.306;2023-04-03T04:39:05;94657.69;;;9.09;100.00
20119;BME280;10220;42.716;23.306;2023-04-03T04:41:31;94676.88;;;9.26;100.00
20119;BME280;10220;42.716;23.306;2023-04-03T04:43:56;94660.81;;;8.80;100.00
20119;BME280;10220;42.716;23.306;2023-04-03T04:46:22;94671.25;;;8.98;100.00
20119;BME280;10220;42.716;23.306;2023-04-03T04:48:48;94663.63;;;8.72;100.00
20119;BME280;10220;42.716;23.306;2023-04-03T04:51:14;94663.84;;;9.45;100.00
20119;BME280;10220;42.716;23.306;2023-04-03T04:53:40;94682.25;;;10.16;100.00
20119;BME280;10220;42.716;23.306;2023-04-03T04:56:09;94678.38;;;9.77;100.00
20119;BME280;10220;42.716;23.306;2023-04-03T04:58:35;94685.91;;;9.78;100.00
20119;BME280;10220;42.716;23.306;2023-04-03T05:01:29;94634.56;;;10.06;100.00
20119;BME280;10220;42.716;23.306;2023-04-03T05:03:54;94638.81;;;9.70;100.00
20119;BME280;10220;42.716;23.306;2023-04-03T05:06:22;94686.44;;;9.87;100.00
20119;BME280;10220;42.716;23.306;2023-04-03T05:08:48;94695.44;;;9.78;100.00
20119;BME280;10220;42.716;23.306;2023-04-03T05:11:13;94697.09;;;10.03;100.00
20119;BME280;10220;42.716;23.306;2023-04-03T05:13:39;94696.38;;;9.22;100.00
20119;BME280;10220;42.716;23.306;2023-04-03T05:16:04;94697.59;;;8.63;100.00
20119;BME280;10220;42.716;23.306;2023-04-03T05:18:30;94700.34;;;8.80;100.00
20119;BME280;10220;42.716;23.306;2023-04-03T05:20:55;94714.91;;;8.04;100.00
20119;BME280;10220;42.716;23.306;2023-04-03T05:23:21;94710.63;;;7.19;100.00
20119;BME280;10220;42.716;23.306;2023-04-03T05:25:46;94723.38;;;7.59;100.00
20119;BME280;10220;42.716;23.306;2023-04-03T05:28:13;94657.13;;;8.44;100.00
20119;BME280;10220;42.716;23.306;2023-04-03T05:30:39;94703.34;;;9.89;100.00
20119;BME280;10220;42.716;23.306;2023-04-03T05:33:04;94718.19;;;10.73;100.00
20119;BME280;10220;42.716;23.306;2023-04-03T05:35:31;94701.44;;;10.09;100.00
20119;BME280;10220;42.716;23.306;2023-04-03T05:37:56;94704.44;;;10.90;100.00
20119;BME280;10220;42.716;23.306;2023-04-03T05:40:22;94709.59;;;10.72;100.00
20119;BME280;10220;42.716;23.306;2023-04-03T05:42:47;94702.47;;;11.04;100.00
20119;BME280;10220;42.716;23.306;2023-04-03T05:45:13;94696.34;;;11.34;100.00
20119;BME280;10220;42.716;23.306;2023-04-03T05:47:38;94689.84;;;10.78;100.00
20119;BME280;10220;42.716;23.306;2023-04-03T05:50:04;94699.97;;;10.37;100.00
20119;BME280;10220;42.716;23.306;2023-04-03T05:52:35;94681.53;;;11.05;100.00
20119;BME280;10220;42.716;23.306;2023-04-03T05:55:01;94696.03;;;11.42;100.00
20119;BME280;10220;42.716;23.306;2023-04-03T05:57:27;94686.41;;;11.89;100.00
20119;BME280;10220;42.716;23.306;2023-04-03T05:59:52;94703.41;;;12.49;100.00
20119;BME280;10220;42.716;23.306;2023-04-03T06:02:21;94706.09;;;10.25;100.00
20119;BME280;10220;42.716;23.306;2023-04-03T06:04:49;94689.44;;;10.14;100.00
20119;BME280;10220;42.716;23.306;2023-04-03T06:07:17;94670.06;;;10.23;100.00
20119;BME280;10220;42.716;23.306;2023-04-03T06:09:44;94683.94;;;10.04;100.00
20119;BME280;10220;42.716;23.306;2023-04-03T06:12:10;94682.69;;;10.13;100.00
20119;BME280;10220;42.716;23.306;2023-04-03T06:14:36;94677.22;;;10.21;100.00
20119;BME280;10220;42.716;23.306;2023-04-03T06:17:02;94665.31;;;11.10;100.00
20119;BME280;10220;42.716;23.306;2023-04-03T06:19:28;94640.56;;;10.24;100.00
20119;BME280;10220;42.716;23.306;2023-04-03T06:21:54;94646.00;;;9.98;100.00
20119;BME280;10220;42.716;23.306;2023-04-03T06:24:20;94665.84;;;9.74;100.00
20119;BME280;10220;42.716;23.306;2023-04-03T06:26:47;94678.06;;;9.91;100.00
20119;BME280;10220;42.716;23.306;2023-04-03T06:29:14;94663.47;;;9.48;100.00
20119;BME280;10220;42.716;23.306;2023-04-03T06:31:39;94685.00;;;9.97;100.00
20119;BME280;10220;42.716;23.306;2023-04-03T06:34:05;94680.84;;;10.80;100.00
20119;BME280;10220;42.716;23.306;2023-04-03T06:36:32;94680.16;;;10.07;100.00
20119;BME280;10220;42.716;23.306;2023-04-03T06:38:58;94679.00;;;8.98;100.00
20119;BME280;10220;42.716;23.306;2023-04-03T06:41:23;94636.53;;;8.87;100.00
20119;BME280;10220;42.716;23.306;2023-04-03T06:43:48;94696.53;;;8.89;100.00
20119;BME280;10220;42.716;23.306;2023-04-03T06:46:19;94701.34;;;9.23;100.00
20119;BME280;10220;42.716;23.306;2023-04-03T06:48:45;94692.28;;;9.76;100.00
20119;BME280;10220;42.716;23.306;2023-04-03T06:51:21;94668.50;;;9.36;100.00
20119;BME280;10220;42.716;23.306;2023-04-03T06:53:48;94682.28;;;9.55;100.00
20119;BME280;10220;42.716;23.306;2023-04-03T06:56:15;94695.22;;;8.61;100.00
20119;BME280;10220;42.716;23.306;2023-04-03T06:58:42;94692.13;;;9.71;100.00
20119;BME280;10220;42.716;23.306;2023-04-03T07:01:09;94686.53;;;9.74;100.00
20119;BME280;10220;42.716;23.306;2023-04-03T07:03:35;94690.53;;;10.85;100.00
20119;BME280;10220;42.716;23.306;2023-04-03T07:06:01;94692.13;;;10.68;100.00
20119;BME280;10220;42.716;23.306;2023-04-03T07:08:26;94688.69;;;10.74;100.00
20119;BME280;10220;42.716;23.306;2023-04-03T07:10:52;94693.22;;;11.43;100.00
20119;BME280;10220;42.716;23.306;2023-04-03T07:13:17;94685.94;;;11.81;100.00
20119;BME280;10220;42.716;23.306;2023-04-03T07:15:43;94682.78;;;11.79;100.00
20119;BME280;10220;42.716;23.306;2023-04-03T07:18:09;94651.66;;;11.32;100.00
20119;BME280;10220;42.716;23.306;2023-04-03T07:20:34;94663.31;;;11.59;100.00
20119;BME280;10220;42.716;23.306;2023-04-03T07:23:00;94662.50;;;11.58;100.00
20119;BME280;10220;42.716;23.306;2023-04-03T07:25:27;94677.72;;;11.55;100.00
20119;BME280;10220;42.716;23.306;2023-04-03T07:27:53;94632.81;;;11.95;100.00
20119;BME280;10220;42.716;23.306;2023-04-03T07:30:19;94677.16;;;12.05;100.00
20119;BME280;10220;42.716;23.306;2023-04-03T07:32:45;94650.09;;;12.12;100.00
20119;BME280;10220;42.716;23.306;2023-04-03T07:35:11;94644.09;;;12.34;100.00
20119;BME280;10220;42.716;23.306;2023-04-03T07:37:37;94665.53;;;12.07;100.00
20119;BME280;10220;42.716;23.306;2023-04-03T07:40:03;94671.66;;;12.24;100.00
20119;BME280;10220;42.716;23.306;2023-04-03T07:42:34;94665.22;;;12.04;100.00
20119;BME280;10220;42.716;23.306;2023-04-03T07:45:23;94660.72;;;12.33;100.00
20119;BME280;10220;42.716;23.306;2023-04-03T07:47:48;94638.78;;;12.64;100.00
20119;BME280;10220;42.716;23.306;2023-04-03T07:50:14;94610.22;;;12.52;98.27
20119;BME280;10220;42.716;23.306;2023-04-03T07:52:40;94635.59;;;12.96;95.61
20119;BME280;10220;42.716;23.306;2023-04-03T07:55:06;94625.66;;;12.82;93.82
20119;BME280;10220;42.716;23.306;2023-04-03T07:57:32;94647.28;;;12.48;93.18
20119;BME280;10220;42.716;23.306;2023-04-03T07:59:57;94651.16;;;11.71;98.03
20119;BME280;10220;42.716;23.306;2023-04-03T08:02:23;94639.28;;;11.34;100.00
20119;BME280;10220;42.716;23.306;2023-04-03T08:04:48;94599.09;;;12.06;100.00
20119;BME280;10220;42.716;23.306;2023-04-03T08:07:13;94612.03;;;12.52;99.91
20119;BME280;10220;42.716;23.306;2023-04-03T08:09:39;94622.59;;;12.96;95.40
20119;BME280;10220;42.716;23.306;2023-04-03T08:12:04;94592.41;;;12.84;93.89
20119;BME280;10220;42.716;23.306;2023-04-03T08:14:33;94622.41;;;13.14;89.48
20119;BME280;10220;42.716;23.306;2023-04-03T08:17:00;94635.38;;;12.75;93.04
20119;BME280;10220;42.716;23.306;2023-04-03T08:19:26;94632.13;;;11.99;95.46
20119;BME280;10220;42.716;23.306;2023-04-03T08:21:52;94632.22;;;11.81;98.74
20119;BME280;10220;42.716;23.306;2023-04-03T08:24:18;94624.47;;;12.04;99.59
20119;BME280;10220;42.716;23.306;2023-04-03T08:26:43;94608.19;;;11.86;100.00
20119;BME280;10220;42.716;23.306;2023-04-03T08:29:09;94618.13;;;12.46;100.00
20119;BME280;10220;42.716;23.306;2023-04-03T08:31:35;94609.06;;;12.71;97.44
20119;BME280;10220;42.716;23.306;2023-04-03T08:34:00;94614.13;;;12.89;95.74
20119;BME280;10220;42.716;23.306;2023-04-03T08:36:27;94619.59;;;12.53;93.58
20119;BME280;10220;42.716;23.306;2023-04-03T08:38:55;94592.75;;;12.14;96.93
20119;BME280;10220;42.716;23.306;2023-04-03T08:41:36;94591.56;;;11.53;100.00
20119;BME280;10220;42.716;23.306;2023-04-03T08:44:31;94606.38;;;11.86;100.00
20119;BME280;10220;42.716;23.306;2023-04-03T08:49:45;94607.63;;;11.84;100.00
20119;BME280;10220;42.716;23.306;2023-04-03T08:52:18;94594.91;;;12.17;99.46
20119;BME280;10220;42.716;23.306;2023-04-03T08:54:50;94589.56;;;11.77;100.00
20119;BME280;10220;42.716;23.306;2023-04-03T08:57:35;94581.69;;;12.18;100.00
20119;BME280;10220;42.716;23.306;2023-04-03T09:00:17;94592.75;;;12.14;100.00
20119;BME280;10220;42.716;23.306;2023-04-03T09:06:03;94591.16;;;12.24;100.00
20119;BME280;10220;42.716;23.306;2023-04-03T09:10:43;94575.22;;;12.32;99.55
20119;BME280;10220;42.716;23.306;2023-04-03T09:13:24;94575.63;;;12.63;98.37
20119;BME280;10220;42.716;23.306;2023-04-03T09:15:54;94563.41;;;12.75;95.70
20119;BME280;10220;42.716;23.306;2023-04-03T09:18:28;94552.19;;;12.47;95.17
20119;BME280;10220;42.716;23.306;2023-04-03T09:21:31;94547.00;;;12.35;96.11
20119;BME280;10220;42.716;23.306;2023-04-03T09:24:00;94545.75;;;12.27;98.62
20119;BME280;10220;42.716;23.306;2023-04-03T09:26:30;94553.44;;;12.72;96.05
20119;BME280;10220;42.716;23.306;2023-04-03T09:29:01;94549.38;;;12.76;93.21
20119;BME280;10220;42.716;23.306;2023-04-03T09:31:35;94547.09;;;12.80;93.37
20119;BME280;10220;42.716;23.306;2023-04-03T09:34:05;94533.09;;;12.81;95.63
20119;BME280;10220;42.716;23.306;2023-04-03T09:36:39;94548.16;;;13.06;95.14
20119;BME280;10220;42.716;23.306;2023-04-03T09:39:18;94546.91;;;13.09;91.83
20119;BME280;10220;42.716;23.306;2023-04-03T09:44:37;94542.88;;;13.18;90.42
20119;BME280;10220;42.716;23.306;2023-04-03T09:47:28;94537.63;;;12.85;93.04
20119;BME280;10220;42.716;23.306;2023-04-03T09:52:40;94532.28;;;12.80;94.80
20119;BME280;10220;42.716;23.306;2023-04-03T09:55:21;94525.69;;;12.61;97.30
20119;BME280;10220;42.716;23.306;2023-04-03T09:57:53;94532.53;;;12.90;96.86
20119;BME280;10220;42.716;23.306;2023-04-03T10:03:01;94526.59;;;13.39;91.46
20119;BME280;10220;42.716;23.306;2023-04-03T10:05:37;94515.38;;;13.22;92.23
20119;BME280;10220;42.716;23.306;2023-04-03T10:11:16;94516.25;;;13.11;95.24
20119;BME280;10220;42.716;23.306;2023-04-03T10:16:26;94499.84;;;12.94;96.91
20119;BME280;10220;42.716;23.306;2023-04-03T10:27:08;94504.03;;;12.95;93.80
20119;BME280;10220;42.716;23.306;2023-04-03T10:29:45;94509.94;;;12.79;91.73
20119;BME280;10220;42.716;23.306;2023-04-03T10:35:35;94498.00;;;12.67;92.66
20119;BME280;10220;42.716;23.306;2023-04-03T10:40:30;94485.66;;;12.46;94.15
20119;BME280;10220;42.716;23.306;2023-04-03T10:53:57;94475.34;;;13.23;87.79
20119;BME280;10220;42.716;23.306;2023-04-03T11:02:01;94472.66;;;13.01;89.70
20119;BME280;10220;42.716;23.306;2023-04-03T11:04:31;94476.94;;;12.80;91.38
20119;BME280;10220;42.716;23.306;2023-04-03T11:07:22;94464.66;;;12.75;92.14
20119;BME280;10220;42.716;23.306;2023-04-03T11:09:55;94480.75;;;12.89;92.87
20119;BME280;10220;42.716;23.306;2023-04-03T11:12:38;94446.03;;;12.67;94.44
20119;BME280;10220;42.716;23.306;2023-04-03T11:15:12;94453.44;;;12.58;95.64
20119;BME280;10220;42.716;23.306;2023-04-03T11:17:46;94456.22;;;12.57;98.73
20119;BME280;10220;42.716;23.306;2023-04-03T11:22:58;94477.06;;;12.45;100.00
20119;BME280;10220;42.716;23.306;2023-04-03T11:25:29;94484.50;;;12.53;100.00
20119;BME280;10220;42.716;23.306;2023-04-03T11:27:56;94483.81;;;12.46;100.00
20119;BME280;10220;42.716;23.306;2023-04-03T11:35:51;94489.59;;;11.98;100.00
20119;BME280;10220;42.716;23.306;2023-04-03T11:38:40;94482.06;;;11.85;100.00
20119;BME280;10220;42.716;23.306;2023-04-03T11:41:08;94481.38;;;11.78;100.00
20119;BME280;10220;42.716;23.306;2023-04-03T11:43:41;94473.94;;;11.59;100.00
20119;BME280;10220;42.716;23.306;2023-04-03T11:46:07;94485.56;;;11.56;100.00
20119;BME280;10220;42.716;23.306;2023-04-03T11:53:49;94477.06;;;11.26;100.00
20119;BME280;10220;42.716;23.306;2023-04-03T11:56:35;94484.84;;;11.38;100.00
20119;BME280;10220;42.716;23.306;2023-04-03T12:01:53;94483.25;;;11.37;100.00
20119;BME280;10220;42.716;23.306;2023-04-03T12:04:22;94482.31;;;11.49;100.00
20119;BME280;10220;42.716;23.306;2023-04-03T12:09:51;94487.81;;;11.53;100.00
20119;BME280;10220;42.716;23.306;2023-04-03T12:12:42;94485.72;;;11.32;100.00
20119;BME280;10220;42.716;23.306;2023-04-03T12:15:22;94458.34;;;11.13;100.00
20119;BME280;10220;42.716;23.306;2023-04-03T12:17:47;94479.16;;;11.07;100.00
20119;BME280;10220;42.716;23.306;2023-04-03T12:23:24;94467.19;;;10.94;100.00
20119;BME280;10220;42.716;23.306;2023-04-03T12:25:51;94447.13;;;10.90;100.00
20119;BME280;10220;42.716;23.306;2023-04-03T12:28:17;94459.84;;;10.80;100.00
20119;BME280;10220;42.716;23.306;2023-04-03T12:30:43;94459.56;;;10.58;100.00
20119;BME280;10220;42.716;23.306;2023-04-03T12:36:50;94446.50;;;10.06;100.00
20119;BME280;10220;42.716;23.306;2023-04-03T12:45:20;94433.47;;;9.77;100.00
20119;BME280;10220;42.716;23.306;2023-04-03T12:47:51;94423.34;;;9.58;100.00
20119;BME280;10220;42.716;23.306;2023-04-03T12:50:21;94418.97;;;9.58;100.00
20119;BME280;10220;42.716;23.306;2023-04-03T12:55:23;94420.59;;;9.53;100.00
20119;BME280;10220;42.716;23.306;2023-04-03T12:57:48;94416.94;;;9.42;100.00
20119;BME280;10220;42.716;23.306;2023-04-03T13:00:40;94393.72;;;9.36;100.00
20119;BME280;10220;42.716;23.306;2023-04-03T13:03:21;94406.25;;;9.39;100.00
20119;BME280;10220;42.716;23.306;2023-04-03T13:05:48;94418.50;;;9.43;100.00
20119;BME280;10220;42.716;23.306;2023-04-03T13:08:14;94419.00;;;9.34;100.00
20119;BME280;10220;42.716;23.306;2023-04-03T13:11:00;94415.22;;;9.36;100.00
20119;BME280;10220;42.716;23.306;2023-04-03T13:13:28;94401.47;;;9.36;100.00
20119;BME280;10220;42.716;23.306;2023-04-03T13:15:54;94409.72;;;9.27;100.00
20119;BME280;10220;42.716;23.306;2023-04-03T13:21:08;94403.94;;;9.31;100.00
20119;BME280;10220;42.716;23.306;2023-04-03T13:23:39;94400.34;;;9.32;100.00
20119;BME280;10220;42.716;23.306;2023-04-03T13:26:06;94389.06;;;9.27;100.00
20119;BME280;10220;42.716;23.306;2023-04-03T13:28:33;94405.72;;;9.31;100.00
20119;BME280;10220;42.716;23.306;2023-04-03T13:34:05;94387.28;;;9.27;100.00
20119;BME280;10220;42.716;23.306;2023-04-03T13:36:35;94386.34;;;9.39;100.00
20119;BME280;10220;42.716;23.306;2023-04-03T13:41:40;94389.88;;;9.27;100.00
20119;BME280;10220;42.716;23.306;2023-04-03T13:46:50;94392.53;;;9.21;100.00
20119;BME280;10220;42.716;23.306;2023-04-03T13:49:42;94388.63;;;9.12;100.00
20119;BME280;10220;42.716;23.306;2023-04-03T13:55:03;94385.59;;;9.15;100.00
20119;BME280;10220;42.716;23.306;2023-04-03T13:58:02;94383.63;;;9.17;100.00
20119;BME280;10220;42.716;23.306;2023-04-03T14:00:47;94378.28;;;9.12;100.00
20119;BME280;10220;42.716;23.306;2023-04-03T14:03:22;94374.28;;;9.16;100.00
20119;BME280;10220;42.716;23.306;2023-04-03T14:05:48;94382.66;;;9.11;100.00
20119;BME280;10220;42.716;23.306;2023-04-03T14:08:14;94376.72;;;9.11;100.00
20119;BME280;10220;42.716;23.306;2023-04-03T14:10:39;94362.47;;;9.02;100.00
20119;BME280;10220;42.716;23.306;2023-04-03T14:13:05;94366.22;;;9.06;100.00
20119;BME280;10220;42.716;23.306;2023-04-03T14:15:31;94371.69;;;9.16;100.00
20119;BME280;10220;42.716;23.306;2023-04-03T14:17:57;94359.25;;;9.06;100.00
20119;BME280;10220;42.716;23.306;2023-04-03T14:20:26;94335.94;;;8.95;100.00
20119;BME280;10220;42.716;23.306;2023-04-03T14:22:52;94372.31;;;9.11;100.00
20119;BME280;10220;42.716;23.306;2023-04-03T14:25:19;94368.31;;;9.15;100.00
20119;BME280;10220;42.716;23.306;2023-04-03T14:27:48;94364.94;;;9.15;100.00
20119;BME280;10220;42.716;23.306;2023-04-03T14:30:33;94351.00;;;8.98;100.00
20119;BME280;10220;42.716;23.306;2023-04-03T14:32:59;94363.47;;;9.01;100.00
20119;BME280;10220;42.716;23.306;2023-04-03T14:35:25;94359.19;;;8.95;100.00